createdAt,value
2023-02-27T00:03:58.728Z,85.53
2023-02-27T00:09:01.732Z,85.78
2023-02-27T00:14:04.658Z,85.46
2023-02-27T00:19:08.972Z,85.55
2023-02-27T00:24:12.154Z,85.11
2023-02-27T00:29:15.058Z,85.07
2023-02-27T00:34:19.319Z,85.26
2023-02-27T00:39:22.291Z,85.44
2023-02-27T00:44:25.206Z,86.01
2023-02-27T00:49:29.426Z,85.92
2023-02-27T00:54:32.377Z,86.37
2023-02-27T00:59:35.322Z,86.38
2023-02-27T01:04:39.632Z,85.86
2023-02-27T01:09:43.348Z,86.66
2023-02-27T01:14:46.320Z,87.96
2023-02-27T01:19:50.604Z,87.72
2023-02-27T01:24:53.588Z,87.41
2023-02-27T01:29:56.540Z,87.03
2023-02-27T01:35:00.806Z,87.23
2023-02-27T01:40:05.040Z,87.73
2023-02-27T01:45:28.519Z,87.76
2023-02-27T01:50:34.706Z,86.75
2023-02-27T01:55:40.225Z,87.69
2023-02-27T02:00:43.473Z,86.58
2023-02-27T02:05:48.670Z,88.42
2023-02-27T02:10:53.046Z,87.34
2023-02-27T02:16:20.154Z,86.94
2023-02-27T02:21:54.462Z,86.82
2023-02-27T02:27:10.774Z,86.64
2023-02-27T02:32:43.656Z,87.79
2023-02-27T02:38:30.230Z,87.36
2023-02-27T02:43:42.391Z,86.97
2023-02-27T02:48:50.358Z,87.68
2023-02-27T02:54:01.041Z,87.48
2023-02-27T02:59:10.899Z,88.18
2023-02-27T03:04:19.700Z,88.59
2023-02-27T03:09:30.156Z,88.82
2023-02-27T03:14:40.447Z,90.97
2023-02-27T03:19:51.405Z,92.55
2023-02-27T03:24:58.342Z,90.15
2023-02-27T03:30:08.933Z,89.57
2023-02-27T03:35:12.833Z,91.04
2023-02-27T03:40:26.672Z,90.83
2023-02-27T03:45:37.529Z,89.57
2023-02-27T03:50:40.547Z,89.45
2023-02-27T03:55:46.974Z,89.29
2023-02-27T04:00:51.361Z,88.16
2023-02-27T04:05:54.616Z,88.17
2023-02-27T04:11:16.749Z,88.05
2023-02-27T04:16:47.076Z,88.16
2023-02-27T04:22:04.249Z,88.81
2023-02-27T04:27:16.099Z,88.85
2023-02-27T04:32:27.224Z,88.21
2023-02-27T04:37:36.772Z,87.17
2023-02-27T04:42:43.108Z,88.70
2023-02-27T04:47:50.723Z,89.03
2023-02-27T04:52:58.461Z,88.20
2023-02-27T04:58:05.685Z,90.65
2023-02-27T05:03:14.547Z,91.55
2023-02-27T05:08:25.091Z,92.90
2023-02-27T05:13:33.224Z,90.96
2023-02-27T05:18:37.990Z,94.14
2023-02-27T05:23:45.996Z,91.67
2023-02-27T05:28:55.186Z,90.77
2023-02-27T05:34:07.538Z,92.08
2023-02-27T05:39:12.386Z,92.47
2023-02-27T05:44:18.390Z,90.30
2023-02-27T05:49:27.195Z,89.69
2023-02-27T05:54:37.258Z,89.62
2023-02-27T05:59:45.190Z,88.48
2023-02-27T06:04:49.464Z,88.51
2023-02-27T06:09:52.880Z,88.55
2023-02-27T06:14:55.719Z,90.82
2023-02-27T06:19:59.925Z,89.61
2023-02-27T06:25:03.048Z,89.80
2023-02-27T06:30:07.856Z,88.93
2023-02-27T06:35:12.746Z,88.43
2023-02-27T06:40:16.054Z,87.46
2023-02-27T06:45:19.073Z,85.52
2023-02-27T06:50:23.368Z,85.15
2023-02-27T06:55:26.694Z,85.73
2023-02-27T07:00:30.516Z,85.17
2023-02-27T07:05:34.951Z,85.53
2023-02-27T07:10:38.948Z,85.65
2023-02-27T07:15:42.007Z,85.94
2023-02-27T07:20:46.260Z,82.83
2023-02-27T07:25:49.200Z,82.24
2023-02-27T07:30:54.856Z,81.10
2023-02-27T07:35:59.128Z,80.34
2023-02-27T07:41:02.082Z,80.70
2023-02-27T07:46:05.306Z,79.59
2023-02-27T07:51:09.569Z,78.62
2023-02-27T07:56:12.504Z,76.31
2023-02-27T08:01:15.378Z,76.34
2023-02-27T08:06:19.650Z,76.28
2023-02-27T08:11:22.686Z,75.65
2023-02-27T08:16:26.162Z,75.20
2023-02-27T08:21:31.153Z,76.68
2023-02-27T08:26:34.357Z,76.65
2023-02-27T08:31:37.271Z,74.46
2023-02-27T08:36:41.848Z,74.03
2023-02-27T08:41:44.792Z,76.43
2023-02-27T08:46:47.901Z,74.04
2023-02-27T08:51:52.230Z,74.15
2023-02-27T08:56:55.132Z,73.60
2023-02-27T09:01:59.076Z,73.51
2023-02-27T09:07:03.563Z,75.65
2023-02-27T09:12:07.024Z,76.22
2023-02-27T09:17:09.931Z,73.67
2023-02-27T09:22:14.234Z,73.44
2023-02-27T09:27:17.303Z,71.71
2023-02-27T09:32:20.313Z,75.23
2023-02-27T09:37:25.289Z,76.29
2023-02-27T09:42:34.926Z,77.42
2023-02-27T09:47:41.756Z,79.53
2023-02-27T09:52:46.267Z,78.51
2023-02-27T09:57:56.301Z,75.16
2023-02-27T10:03:08.616Z,73.89
2023-02-27T10:08:22.530Z,72.23
2023-02-27T10:13:52.366Z,74.62
2023-02-27T10:18:59.410Z,78.71
2023-02-27T10:24:13.027Z,77.14
2023-02-27T10:29:20.364Z,78.07
2023-02-27T10:34:25.557Z,74.89
2023-02-27T10:39:31.747Z,77.63
2023-02-27T10:44:34.750Z,80.18
2023-02-27T10:49:39.574Z,76.71
2023-02-27T10:54:44.134Z,75.76
2023-02-27T10:59:53.906Z,76.84
2023-02-27T11:04:59.849Z,82.23
2023-02-27T11:10:17.286Z,82.62
2023-02-27T11:15:25.688Z,83.63
2023-02-27T11:20:36.902Z,84.75
2023-02-27T11:25:41.609Z,81.95
2023-02-27T11:30:44.742Z,80.43
2023-02-27T11:35:57.218Z,80.96
2023-02-27T11:41:04.290Z,75.50
2023-02-27T11:46:31.524Z,79.10
2023-02-27T11:51:47.026Z,78.64
2023-02-27T11:56:54.928Z,75.70
2023-02-27T12:02:04.858Z,74.91
2023-02-27T12:07:16.593Z,72.92
2023-02-27T12:12:24.987Z,72.92
2023-02-27T12:17:33.131Z,73.44
2023-02-27T12:22:38.970Z,71.70
2023-02-27T12:27:48.108Z,72.69
2023-02-27T12:32:55.749Z,71.95
2023-02-27T12:37:59.032Z,73.13
2023-02-27T12:43:26.823Z,72.38
2023-02-27T12:48:46.442Z,71.88
2023-02-27T12:54:06.666Z,72.34
2023-02-27T12:59:24.898Z,69.75
2023-02-27T13:04:37.561Z,71.27
2023-02-27T13:09:46.505Z,75.02
2023-02-27T13:14:58.785Z,76.68
2023-02-27T13:20:06.210Z,77.41
2023-02-27T13:25:14.317Z,76.17
2023-02-27T13:30:25.029Z,77.47
2023-02-27T13:35:36.307Z,74.83
2023-02-27T13:40:41.474Z,74.79
2023-02-27T13:45:57.913Z,77.41
2023-02-27T13:51:02.187Z,77.56
2023-02-27T13:56:23.222Z,76.52
2023-02-27T14:01:29.676Z,73.74
2023-02-27T14:06:33.046Z,72.02
2023-02-27T14:11:39.842Z,67.41
2023-02-27T14:17:03.523Z,61.01
2023-02-27T14:22:40.189Z,61.86
2023-02-27T14:27:50.456Z,62.84
2023-02-27T14:32:59.019Z,62.62
2023-02-27T14:38:09.314Z,60.77
2023-02-27T14:43:22.972Z,62.75
2023-02-27T14:48:29.785Z,62.05
2023-02-27T14:53:33.038Z,62.58
2023-02-27T14:58:36.056Z,62.74
2023-02-27T15:03:46.097Z,59.59
2023-02-27T15:08:52.214Z,60.67
2023-02-27T15:13:59.331Z,62.73
2023-02-27T15:19:14.220Z,63.54
2023-02-27T15:24:26.918Z,62.76
2023-02-27T15:29:35.850Z,64.23
2023-02-27T15:34:45.009Z,65.74
2023-02-27T15:39:48.205Z,62.15
2023-02-27T15:44:52.988Z,65.59
2023-02-27T15:50:01.174Z,69.99
2023-02-27T15:55:07.634Z,72.87
2023-02-27T16:00:12.254Z,75.11
2023-02-27T16:05:22.620Z,75.49
2023-02-27T16:10:29.113Z,74.10
2023-02-27T16:15:34.664Z,74.30
2023-02-27T16:20:42.193Z,73.75
2023-02-27T16:26:03.181Z,75.87
2023-02-27T16:31:08.006Z,76.42
2023-02-27T16:36:23.248Z,77.18
2023-02-27T16:41:26.543Z,76.30
2023-02-27T16:46:31.137Z,77.62
2023-02-27T16:51:36.149Z,77.17
2023-02-27T16:56:39.437Z,78.13
2023-02-27T17:01:42.840Z,78.46
2023-02-27T17:06:47.177Z,78.50
2023-02-27T17:11:51.246Z,78.97
2023-02-27T17:16:54.248Z,79.63
2023-02-27T17:21:58.643Z,79.76
2023-02-27T17:27:01.729Z,80.78
2023-02-27T17:32:05.118Z,80.71
2023-02-27T17:37:09.614Z,80.25
2023-02-27T17:42:16.548Z,80.05
2023-02-27T17:47:19.648Z,80.45
2023-02-27T17:52:24.084Z,80.08
2023-02-27T17:57:27.118Z,79.47
2023-02-27T18:02:30.159Z,79.51
2023-02-27T18:07:34.661Z,79.03
2023-02-27T18:12:38.358Z,78.94
2023-02-27T18:17:41.677Z,79.13
2023-02-27T18:22:45.950Z,78.78
2023-02-27T18:27:49.023Z,78.95
2023-02-27T18:32:51.956Z,80.57
2023-02-27T18:37:56.261Z,80.94
2023-02-27T18:42:59.210Z,80.05
2023-02-27T18:48:02.231Z,79.33
2023-02-27T18:53:06.548Z,79.88
2023-02-27T18:58:09.481Z,80.25
2023-02-27T19:03:12.502Z,79.31
2023-02-27T19:08:17.507Z,79.40
2023-02-27T19:13:20.416Z,80.08
2023-02-27T19:18:23.310Z,80.19
2023-02-27T19:23:27.595Z,80.46
2023-02-27T19:28:30.675Z,80.78
2023-02-27T19:33:33.555Z,80.06
2023-02-27T19:38:38.083Z,79.68
2023-02-27T19:43:42.279Z,78.90
2023-02-27T19:48:45.291Z,78.36
2023-02-27T19:53:49.825Z,78.71
2023-02-27T19:58:54.107Z,79.67
2023-02-27T20:03:57.640Z,79.35
2023-02-27T20:09:02.136Z,81.68
2023-02-27T20:14:05.545Z,80.61
2023-02-27T20:19:10.784Z,80.49
2023-02-27T20:24:16.447Z,80.35
2023-02-27T20:29:23.109Z,81.03
2023-02-27T20:34:27.177Z,80.73
2023-02-27T20:39:31.619Z,80.95
2023-02-27T20:44:34.584Z,81.50
2023-02-27T20:49:37.652Z,80.78
2023-02-27T20:54:41.975Z,81.47
2023-02-27T20:59:44.889Z,81.64
2023-02-27T21:04:49.417Z,82.77
2023-02-27T21:09:53.817Z,83.04
2023-02-27T21:14:57.257Z,83.06
2023-02-27T21:20:00.160Z,83.23
2023-02-27T21:25:04.845Z,83.79
2023-02-27T21:30:11.097Z,83.46
2023-02-27T21:35:14.821Z,83.91
2023-02-27T21:40:19.358Z,83.93
2023-02-27T21:45:22.259Z,84.34
2023-02-27T21:50:25.167Z,84.47
2023-02-27T21:55:29.605Z,84.09
2023-02-27T22:00:33.563Z,84.29
2023-02-27T22:05:36.761Z,84.57
2023-02-27T22:10:42.888Z,84.83
2023-02-27T22:15:45.841Z,84.66
2023-02-27T22:20:49.093Z,84.73
2023-02-27T22:26:01.566Z,84.74
2023-02-27T22:31:09.498Z,84.67
2023-02-27T22:36:15.115Z,84.84
2023-02-27T22:41:21.229Z,84.89
2023-02-27T22:46:26.777Z,85.09
2023-02-27T22:51:30.585Z,84.79
2023-02-27T22:56:36.483Z,85.48
2023-02-27T23:01:39.538Z,85.34
2023-02-27T23:06:42.969Z,84.21
2023-02-27T23:11:47.734Z,84.57
2023-02-27T23:16:51.446Z,84.75
2023-02-27T23:21:54.359Z,85.20
2023-02-27T23:27:00.227Z,85.28
2023-02-27T23:32:03.191Z,84.97
2023-02-27T23:37:06.509Z,85.59
2023-02-27T23:42:10.918Z,84.77
2023-02-27T23:47:31.280Z,84.92
2023-02-27T23:52:34.164Z,85.08
2023-02-27T23:57:38.410Z,85.47
